Latest Weather Observations for Bankstown

IDN60801

Issued at 5:32 pm EST Wednesday 26 April 2017 (issued every 30 minutes, with the page automatically refreshed every 10 minutes)

About weather observations | Map of weather stations | Latest weather observations for NSW | Other Formats
Station Details ID: 066137 Name: BANKSTOWN AIRPORT AWS Lat: -33.92 Lon: 150.99 Height: 6.5 m
Data from the previous 72 hours. | See also: Recent months at Bankstown
Date/Time
EST
Temp
°C
App
Temp
°C
Dew
Point
°C
Rel
Hum
%
Delta-T
°C
Wind Press
QNH
hPa
Press
MSL
hPa
Rain since
9am
mm
Dir  Spd
km/h
Gust
km/h
Spd
kts
Gust
kts
26/05:30pm 13.5 11.0 9.6 77 2.0 NW 13 15 7 8 1005.2 1005.2 1.0
26/05:00pm 14.0 12.1 10.4 79 1.9 NNW 11 13 6 7 1005.1 1005.1 1.0
26/04:30pm 14.1 11.9 9.5 74 2.4 NW 11 15 6 8 1005.6 1005.6 1.0
26/04:00pm 13.7 11.7 10.3 80 1.8 NW 11 17 6 9 1005.8 1005.8 1.0
26/03:30pm 13.1 9.3 9.9 81 1.6 WSW 20 35 11 19 1005.9 1005.9 1.0
26/03:03pm 15.1 8.5 8.6 65 3.3 WSW 33 52 18 28 1005.4 1005.4 0.0
26/03:00pm 15.2 8.0 7.7 61 3.7 WSW 35 52 19 28 1005.3 1005.3 0.0
26/02:30pm 18.2 10.2 5.8 44 6.1 W 37 72 20 39 1004.2 1004.2 0.0
26/02:27pm 19.9 13.6 5.5 39 7.1 W 28 67 15 36 1003.8 1003.8 0.0
26/02:00pm 21.3 16.2 7.5 41 7.2 WNW 24 33 13 18 1003.0 1003.0 0.0
26/01:30pm 22.5 16.2 7.5 38 7.8 W 30 43 16 23 1002.7 1002.7 0.0
26/01:00pm 21.4 17.4 10.6 50 5.9 WSW 22 44 12 24 1003.0 1003.0 0.0
26/12:50pm 21.4 15.8 8.7 44 6.7 WNW 28 52 15 28 1003.0 1003.0 0.0
26/12:30pm 22.9 17.6 6.6 35 8.4 NW 24 33 13 18 1003.1 1003.1 0.0
26/12:00pm 23.9 18.2 8.3 37 8.3 WNW 28 37 15 20 1003.4 1003.4 0.0
26/11:30am 23.2 17.5 6.9 35 8.4 WNW 26 33 14 18 1004.1 1004.1 0.0
26/11:00am 23.4 18.5 8.3 38 8.0 WNW 24 37 13 20 1004.9 1004.9 0.0
26/10:30am 22.5 17.3 7.1 37 7.9 WNW 24 37 13 20 1005.2 1005.2 0.0
26/10:00am 22.1 17.8 9.3 44 6.9 NW 22 33 12 18 1005.7 1005.7 0.0
26/09:30am 21.8 19.6 10.9 50 6.0 NW 13 20 7 11 1006.3 1006.3 0.0
26/09:00am 20.7 17.5 11.1 54 5.3 NW 19 28 10 15 1006.8 1006.8 0.6
26/08:30am 20.2 17.1 11.7 58 4.7 NW 19 28 10 15 1006.7 1006.7 0.6
26/08:00am 18.8 18.0 12.8 68 3.4 NNW 9 17 5 9 1006.8 1006.8 0.6
26/07:30am 16.9 16.3 13.6 81 1.9 NNW 9 11 5 6 1006.9 1006.9 0.6
26/07:00am 15.5 14.4 13.0 85 1.4 NNW 11 13 6 7 1006.8 1006.8 0.6
26/06:30am 14.8 13.3 13.0 89 1.0 N 13 15 7 8 1007.0 1007.0 0.6
26/06:00am 12.9 12.2 11.5 91 0.7 NNW 6 7 3 4 1007.0 1007.0 0.6
26/05:30am 13.9 14.8 13.0 94 0.5 CALM 0 7 0 4 1006.9 1006.9 0.6
26/05:00am 14.1 15.1 13.1 94 0.6 CALM 0 0 0 0 1006.7 1006.7 0.6
26/04:30am 14.4 15.4 13.3 93 0.6 CALM 0 0 0 0 1006.6 1006.6 0.6
26/04:00am 14.9 16.0 13.6 92 0.7 CALM 0 0 0 0 1006.6 1006.6 0.6
26/03:30am 15.3 15.3 13.7 90 0.9 NW 6 11 3 6 1006.8 1006.8 0.6
26/03:00am 16.9 17.0 14.5 86 1.4 NNW 7 9 4 5 1007.0 1007.0 0.6
26/02:30am 17.5 17.3 14.6 83 1.7 NNW 9 13 5 7 1007.2 1007.2 0.6
26/02:00am 18.0 18.3 15.1 83 1.7 NNW 7 13 4 7 1007.5 1007.5 0.6
26/01:30am 18.1 18.5 15.2 83 1.7 NNW 7 9 4 5 1007.7 1007.7 0.6
26/01:00am 18.4 17.9 14.9 80 2.0 NNW 11 17 6 9 1007.7 1007.7 0.6
26/12:30am 18.8 18.4 15.3 80 2.1 NNW 11 15 6 8 1007.7 1007.7 0.6
26/12:00am 18.9 18.5 15.2 79 2.2 NNW 11 15 6 8 1007.8 1007.8 0.6
 
Date/Time
EST
Temp
°C
App
Temp
°C
Dew
Point
°C
Rel
Hum
%
Delta-T
°C
Wind Press
QNH
hPa
Press
MSL
hPa
Rain since
9am
mm
Dir  Spd
km/h
Gust
km/h
Spd
kts
Gust
kts
25/11:30pm 19.3 19.4 15.4 78 2.3 NNW 9 13 5 7 1008.2 1008.2 0.6
25/11:00pm 19.7 19.5 15.6 77 2.4 NNW 11 15 6 8 1008.1 1008.1 0.6
25/10:30pm 19.6 19.8 15.7 78 2.3 NNW 9 11 5 6 1008.3 1008.3 0.6
25/10:00pm 20.2 19.7 15.8 76 2.6 NNW 13 19 7 10 1008.6 1008.6 0.6
25/09:30pm 19.9 20.6 15.7 77 2.5 N 6 7 3 4 1008.7 1008.7 0.6
25/09:00pm 19.6 19.8 15.7 78 2.3 NNW 9 13 5 7 1008.6 1008.6 0.6
25/08:30pm 20.0 20.5 15.6 76 2.6 NW 7 11 4 6 1008.7 1008.7 0.6
25/08:00pm 20.6 20.5 16.0 75 2.8 NNW 11 15 6 8 1008.4 1008.4 0.6
25/07:30pm 20.7 19.8 15.9 74 2.9 NNW 15 19 8 10 1008.2 1008.2 0.6
25/07:00pm 20.8 20.7 16.0 74 2.9 NNW 11 15 6 8 1008.5 1008.5 0.6
25/06:30pm 20.7 20.2 15.9 74 2.9 NW 13 17 7 9 1008.4 1008.4 0.6
25/06:00pm 20.8 19.2 16.0 74 2.9 NNW 19 30 10 16 1008.2 1008.2 0.6
25/05:30pm 20.8 20.0 16.2 75 2.8 NNW 15 22 8 12 1008.4 1008.4 0.6
25/05:00pm 20.7 20.4 16.5 77 2.5 NNW 13 20 7 11 1008.5 1008.5 0.6
25/04:30pm 20.7 20.3 16.3 76 2.6 NNW 13 24 7 13 1008.3 1008.3 0.6
25/04:00pm 20.9 19.9 16.7 77 2.6 NNW 17 28 9 15 1008.3 1008.3 0.6
25/03:30pm 22.4 20.5 15.7 66 4.0 N 20 28 11 15 1008.1 1008.1 0.4
25/03:00pm 22.4 21.0 15.5 65 4.1 N 17 24 9 13 1008.0 1008.0 0.4
25/02:30pm 23.9 20.8 14.6 56 5.5 NW 24 32 13 17 1008.3 1008.3 0.2
25/02:00pm 25.8 21.4 13.0 45 7.5 NNW 28 41 15 22 1008.3 1008.3 0.2
25/01:30pm 26.4 22.7 13.9 46 7.4 NNW 26 44 14 24 1008.3 1008.3 0.2
25/01:00pm 26.9 23.8 14.6 46 7.4 NNW 24 35 13 19 1008.6 1008.6 0.2
25/12:30pm 26.2 24.5 14.6 48 6.9 NNW 17 28 9 15 1009.4 1009.4 0.2
25/12:00pm 26.0 24.1 14.1 47 7.1 N 17 30 9 16 1010.1 1010.1 0.2
25/11:30am 26.3 24.1 15.0 49 6.8 NNW 20 32 11 17 1010.9 1010.9 0.2
25/11:00am 25.1 23.7 14.6 52 6.3 N 15 22 8 12 1011.6 1011.6 0.2
25/10:30am 23.0 21.5 14.3 58 5.1 N 15 20 8 11 1012.4 1012.4 0.0
25/10:00am 21.4 20.9 15.0 67 3.8 N 11 17 6 9 1013.0 1013.0 0.0
25/09:30am 20.6 19.7 14.9 70 3.3 N 13 17 7 9 1013.5 1013.5 0.0
25/09:00am 20.9 20.9 15.2 70 3.4 N 9 15 5 8 1013.9 1013.9 0.0
25/08:56am 24.8 25.9 18.0 66 4.3 N 9 13 5 7 1013.9 1013.9 0.0
25/08:30am 18.5 20.7 16.5 88 1.2 CALM 0 0 0 0 1014.3 1014.3 0.0
25/08:00am 17.7 19.7 16.0 90 1.0 CALM 0 0 0 0 1014.4 1014.4 0.0
25/07:30am 17.3 19.2 15.8 91 0.9 CALM 0 4 0 2 1014.3 1014.3 0.0
25/07:00am 16.6 18.3 15.3 92 0.8 CALM 0 0 0 0 1014.3 1014.3 0.0
25/06:30am 16.4 18.1 15.3 93 0.6 CALM 0 0 0 0 1014.3 1014.3 0.0
25/06:00am 16.5 18.1 14.9 90 0.9 CALM 0 0 0 0 1014.3 1014.3 0.0
25/05:30am 16.5 18.2 15.2 92 0.8 CALM 0 0 0 0 1014.4 1014.4 0.0
25/05:00am 16.6 18.2 15.0 90 0.9 CALM 0 0 0 0 1014.4 1014.4 0.0
25/04:30am 16.5 17.3 14.9 90 0.9 NNE 4 7 2 4 1014.5 1014.5 0.0
25/04:00am 16.6 18.2 14.8 89 1.0 CALM 0 0 0 0 1014.7 1014.7 0.0
25/03:30am 17.2 18.3 14.7 85 1.4 NNE 2 6 1 3 1015.0 1015.0 0.0
25/03:00am 17.3 19.0 15.1 87 1.3 CALM 0 4 0 2 1015.3 1015.3 0.0
25/02:30am 17.4 18.8 15.4 88 1.2 NNE 2 7 1 4 1015.6 1015.6 0.0
25/02:00am 17.2 19.0 15.4 89 1.0 CALM 0 0 0 0 1016.2 1016.2 0.0
25/01:30am 17.7 18.4 15.7 88 1.2 N 6 7 3 4 1016.5 1016.5 0.0
25/01:00am 17.1 18.3 14.9 87 1.3 N 2 6 1 3 1017.0 1017.0 0.0
25/12:30am 17.5 19.4 15.8 90 1.0 CALM 0 0 0 0 1017.3 1017.3 0.0
25/12:00am 17.8 19.8 16.1 90 1.0 CALM 0 0 0 0 1017.6 1017.6 0.0
 
Date/Time
EST
Temp
°C
App
Temp
°C
Dew
Point
°C
Rel
Hum
%
Delta-T
°C
Wind Press
QNH
hPa
Press
MSL
hPa
Rain since
9am
mm
Dir  Spd
km/h
Gust
km/h
Spd
kts
Gust
kts
24/11:30pm 17.8 19.6 15.4 86 1.4 CALM 0 0 0 0 1017.8 1017.8 0.0
24/11:00pm 18.7 20.7 15.9 84 1.7 CALM 0 0 0 0 1018.2 1018.2 0.0
24/10:30pm 18.6 20.7 16.2 86 1.4 CALM 0 6 0 3 1018.5 1018.5 0.0
24/10:00pm 19.5 21.6 16.2 81 2.0 CALM 0 0 0 0 1018.8 1018.8 0.0
24/09:30pm 19.4 21.1 16.1 81 2.0 N 2 7 1 4 1019.0 1019.0 0.0
24/09:00pm 19.4 20.3 16.1 81 2.0 N 6 9 3 5 1019.2 1019.2 0.0
24/08:30pm 19.2 19.8 15.7 80 2.1 N 7 11 4 6 1019.0 1019.0 0.0
24/08:00pm 19.7 19.5 15.6 77 2.4 NE 11 17 6 9 1018.6 1018.6 0.0
24/07:30pm 19.8 19.3 15.0 74 2.8 NE 11 15 6 8 1018.8 1018.8 0.0
24/07:00pm 20.1 19.6 14.9 72 3.0 NE 11 17 6 9 1018.7 1018.7 0.0
24/06:30pm 20.4 19.9 15.0 71 3.2 NE 11 17 6 9 1018.5 1018.5 0.0
24/06:00pm 20.9 20.5 15.2 70 3.4 NE 11 15 6 8 1018.2 1018.2 0.0
24/05:30pm 21.4 20.7 15.3 68 3.6 NE 13 17 7 9 1018.1 1018.1 0.0
24/05:00pm 22.0 20.8 15.1 65 4.1 NE 15 20 8 11 1017.9 1017.9 0.0
24/04:30pm 23.0 21.4 15.1 61 4.7 ENE 17 22 9 12 1017.7 1017.7 0.0
24/04:00pm 23.6 22.1 15.4 60 4.9 NE 17 22 9 12 1017.8 1017.8 0.0
24/03:30pm 24.2 23.4 15.1 56 5.4 NE 13 19 7 10 1017.8 1017.8 0.0
24/03:00pm 24.1 23.1 14.5 55 5.7 NNE 13 17 7 9 1017.9 1017.9 0.0
24/02:30pm 24.9 24.6 12.8 47 7.0 NE 6 9 3 5 1018.1 1018.1 0.0
24/02:00pm 24.8 24.5 13.4 49 6.6 NE 7 13 4 7 1018.3 1018.3 0.0
24/01:30pm 24.7 24.1 13.6 50 6.5 N 9 13 5 7 1018.7 1018.7 0.0
24/01:00pm 24.0 23.7 13.2 50 6.2 SSE 7 11 4 6 1019.3 1019.3 0.0
24/12:30pm 23.9 24.1 14.6 56 5.5 N 7 17 4 9 1019.9 1019.9 0.0
24/12:00pm 22.8 22.0 13.0 54 5.6 WSW 9 13 5 7 1020.7 1020.7 0.0
24/11:30am 22.8 22.6 13.6 56 5.3 W 7 17 4 9 1021.3 1021.3 0.0
24/11:00am 22.2 22.4 14.3 61 4.6 SW 6 11 3 6 1021.8 1021.8 0.0
24/10:30am 21.0 21.2 14.2 65 4.0 WSW 6 9 3 5 1022.2 1022.2 0.0
24/10:00am 20.2 20.2 14.1 68 3.5 WSW 7 11 4 6 1022.5 1022.5 0.0
24/09:30am 19.4 19.4 14.2 72 3.0 W 7 11 4 6 1022.7 1022.7 0.0
24/09:00am 18.6 18.3 14.5 77 2.4 NW 9 11 5 6 1022.9 1022.9 0.0
24/08:30am 17.7 18.6 14.0 79 2.1 W 2 7 1 4 1023.0 1023.0 0.0
24/08:00am 16.4 16.2 13.5 83 1.6 WNW 7 11 4 6 1022.9 1022.9 0.0
24/07:30am 15.2 15.1 13.2 88 1.1 NNW 6 7 3 4 1022.6 1022.6 0.0
24/07:00am 14.3 14.2 13.3 94 0.6 NNW 6 7 3 4 1022.5 1022.5 0.0
24/06:30am 13.5 13.2 12.6 94 0.5 W 6 7 3 4 1022.3 1022.3 0.0
24/06:00am 14.1 15.0 13.0 93 0.6 CALM 0 0 0 0 1022.1 1022.1 0.0
24/05:30am 13.8 14.6 12.5 92 0.7 CALM 0 0 0 0 1021.8 1021.8 0.0
24/05:00am 14.4 14.7 13.3 93 0.6 W 4 7 2 4 1021.6 1021.6 0.0
24/04:30am 14.5 14.8 13.5 94 0.6 W 4 7 2 4 1021.6 1021.6 0.0
24/04:00am 14.7 15.8 13.6 93 0.6 CALM 0 0 0 0 1021.5 1021.5 0.0
24/03:30am 15.0 16.3 14.0 94 0.6 CALM 0 0 0 0 1021.6 1021.6 0.0
24/03:00am 15.2 15.7 14.1 93 0.6 W 4 6 2 3 1021.7 1021.7 0.0
24/02:30am 15.3 16.3 14.2 93 0.6 W 2 7 1 4 1022.0 1022.0 0.0
24/02:00am 15.6 17.0 14.5 93 0.6 CALM 0 0 0 0 1022.3 1022.3 0.0
24/01:30am 15.9 17.4 14.6 92 0.7 CALM 0 0 0 0 1022.4 1022.4 0.0
24/01:00am 16.1 17.7 14.8 92 0.7 CALM 0 0 0 0 1022.6 1022.6 0.0
24/12:30am 16.0 16.3 14.5 91 0.9 W 6 9 3 5 1022.9 1022.9 0.0
24/12:00am 15.7 15.9 14.2 91 0.8 SSW 6 7 3 4 1023.0 1023.0 0.0
 
Date/Time
EST
Temp
°C
App
Temp
°C
Dew
Point
°C
Rel
Hum
%
Delta-T
°C
Wind Press
QNH
hPa
Press
MSL
hPa
Rain since
9am
mm
Dir  Spd
km/h
Gust
km/h
Spd
kts
Gust
kts
23/11:30pm 16.3 17.8 14.7 90 0.9 CALM 0 0 0 0 1023.1 1023.1 0.0
23/11:00pm 16.8 18.4 15.0 89 1.0 CALM 0 0 0 0 1023.3 1023.3 0.0
23/10:30pm 17.1 18.1 15.3 89 1.0 S 4 6 2 3 1023.4 1023.4 0.0
23/10:00pm 16.9 18.4 14.7 87 1.3 CALM 0 0 0 0 1023.6 1023.6 0.0
23/09:30pm 17.3 19.0 15.3 88 1.2 CALM 0 0 0 0 1023.6 1023.6 0.0
23/09:00pm 17.1 17.6 14.9 87 1.3 S 6 7 3 4 1023.6 1023.6 0.0
23/08:30pm 17.6 19.4 15.4 87 1.3 CALM 0 0 0 0 1023.3 1023.3 0.0
23/08:00pm 18.2 19.1 16.0 87 1.3 S 6 7 3 4 1023.2 1023.2 0.0
23/07:30pm 18.6 19.1 15.5 82 1.8 SSE 7 9 4 5 1022.8 1022.8 0.0
23/07:00pm 20.1 20.1 16.3 79 2.3 SE 11 13 6 7 1022.6 1022.6 0.0
23/06:30pm 20.4 20.8 16.2 77 2.5 ESE 9 11 5 6 1022.2 1022.2 0.0
23/06:00pm 20.6 20.5 16.0 75 2.7 SE 11 13 6 7 1021.9 1021.9 0.0

Other Formats:

Comma delimited format used in spreadsheet applications
http://www.bom.gov.au/fwo/IDN60801/IDN60801.94765.axf

JavaScript Object Notation format (JSON) in row-major order
http://www.bom.gov.au/fwo/IDN60801/IDN60801.94765.json